• Join FlightAware (Why Join?)
  • Login
  • US Flag 
Rudolph Flight #1: Arrived! 
02:47AM EST


 

Airport Tracker/Info


-or-


 

Live Flight TrackerFlight Track Log ✈ RPA3143 ✈ 14-Jul-2013 ✈ KPIT - KDCA

Flight Track Log - Related Links

Times and Time Zones

All times are in EDT time to prevent confusion due to time zone crossing. See the RPA3143 flight status page for this flight to view local times or setup timezone preferences in your user account.

Time Position Orientation Groundspeed Altitude Reporting Facility
EDT Latitude Longitude Course Direction KTS MPH feet Rate Location/Type
06:00AM 40.4897 -80.1928 161° South 157 181 2,400  Level Cleveland Center
06:01AM 40.4792 -80.1328 103° East 198 228 4,400 2,400 Climbing Cleveland Center
06:02AM 40.3314 -79.9062 164° South  Level Estimated
06:02AM 40.4144 -80.1142 168° South 192 221 7,200  Level Cleveland Center
06:03AM 40.2778 -79.7976 162° South  Level Estimated
06:03AM 40.3289 -80.0983 172° South 231 266 11,000  Level Cleveland Center
06:04AM 40.1951 -79.8680 213° Southwest  Level FlightAware Approximate
06:04AM 40.2433 -80.0772 169° South 309 356 13,500  Level Cleveland Center
06:05AM 40.1447 -79.7571 161° South  Level Estimated
06:05AM 40.1556 -80.0481 166° South 331 381 16,300  Level Cleveland Center
06:06AM 40.0742 -80.0214 166° South 336 387 18,000 2,040 Climbing Cleveland Center
06:07AM 39.9822 -79.9925 166° South 336 387 20,400 900 Climbing Cleveland Center
06:09AM 39.7444 -79.9203 167° South 359 413 21,000 180 Climbing Washington Center
06:10AM 39.6433 -79.8900 167° South 364 419 21,000  Level Washington Center
06:11AM 39.5489 -79.8467 161° South 364 419 21,000  Level Washington Center
06:12AM 39.5008 -79.7336 119° Southeast 337 388 21,000  Level Washington Center
06:13AM 39.4697 -79.6056 107° East 337 388 21,000  Level Washington Center
06:14AM 39.4406 -79.4775 106° East 349 402 21,000  Level Washington Center
06:15AM 39.4114 -79.3497 106° East 361 415 21,000  Level Washington Center
06:16AM 39.3756 -79.2217 110° East 372 428 21,000  Level Washington Center
06:17AM 39.3458 -79.0967 107° East 372 428 21,000  Level Washington Center
06:18AM 39.3142 -78.9717 108° East 372 428 21,000  Level Washington Center
06:19AM 39.2842 -78.8497 108° East 372 428 21,000  Level Washington Center
06:20AM 39.2539 -78.7275 108° East 367 422 21,000 -360 Level Washington Center
06:21AM 39.2239 -78.6031 107° East 367 422 20,400 -1,260 Descending Washington Center
06:22AM 39.1914 -78.4811 109° East 367 422 18,500 -1,740 Descending Washington Center
06:23AM 39.1631 -78.3622 107° East 362 417 17,000 -780 Descending Washington Center
06:24AM 39.1322 -78.2433 108° East 357 411 17,000  Level Washington Center
06:25AM 39.1036 -78.1247 107° East 352 405 17,000 -780 Level Washington Center
06:26AM 39.0725 -78.0086 109° East 352 405 15,500 -1,680 Descending Washington Center
06:27AM 39.0436 -77.8928 108° East 352 405 13,700 -1,620 Descending Washington Center
06:28AM 39.0203 -77.7958 107° East 325 374 12,200 -1,620 Descending Washington Center
06:29AM 38.9911 -77.6881 109° East 300 345 10,500 -1,680 Descending Washington Center
06:30AM 38.9667 -77.6167 114° Southeast 283 326 9,600 -1,500 Descending Potomac TRACON
06:31AM 38.9500 -77.5333 104° East 279 321 8,300 -1,140 Descending Potomac TRACON
06:32AM 38.9667 -77.4500 76° East 286 329 7,600 -1,620 Descending Potomac TRACON
06:32AM 38.9833 -77.3667 76° East 285 328 5,600 -1,500 Descending Potomac TRACON
06:33AM 39.0000 -77.2833 76° East 234 269 5,000 -1,080 Descending Potomac TRACON
06:34AM 39.0000 -77.2167 90° East 210 242 3,500 -960 Descending Potomac TRACON
06:35AM 38.9833 -77.1667 113° Southeast 172 198 3,100 -420 Descending Potomac TRACON